createdAt,value
2019-04-28T00:01:42.870Z,26.65
2019-04-28T00:04:11.710Z,32.40
2019-04-28T00:06:41.761Z,24.67
2019-04-28T00:09:11.470Z,19.35
2019-04-28T00:11:41.750Z,21.50
2019-04-28T00:14:11.971Z,19.27
2019-04-28T00:16:41.299Z,23.18
2019-04-28T00:19:11.005Z,18.98
2019-04-28T00:22:01.031Z,18.15
2019-04-28T00:24:37.071Z,23.22
2019-04-28T00:27:06.259Z,28.77
2019-04-28T00:29:40.275Z,26.80
2019-04-28T00:32:05.890Z,23.38
2019-04-28T00:34:34.341Z,20.60
2019-04-28T00:37:04.807Z,22.87
2019-04-28T00:39:33.327Z,24.67
2019-04-28T00:42:03.320Z,20.23
2019-04-28T00:44:32.410Z,22.67
2019-04-28T00:47:01.257Z,17.12
2019-04-28T00:49:48.348Z,21.77
2019-04-28T00:52:18.446Z,19.45
2019-04-28T00:54:48.369Z,22.00
2019-04-28T00:57:17.607Z,20.12
2019-04-28T00:59:56.700Z,19.37
2019-04-28T01:02:18.527Z,21.23
2019-04-28T01:04:46.976Z,21.80
2019-04-28T01:07:15.447Z,26.00
2019-04-28T01:09:44.291Z,22.52
2019-04-28T01:12:12.763Z,23.07
2019-04-28T01:14:43.509Z,18.50
2019-04-28T01:17:13.403Z,20.92
2019-04-28T01:19:43.494Z,20.95
2019-04-28T01:22:12.350Z,25.08
2019-04-28T01:24:41.215Z,24.63
2019-04-28T01:27:11.679Z,20.25
2019-04-28T01:29:40.382Z,17.17
2019-04-28T01:32:10.615Z,15.50
2019-04-28T01:34:40.000Z,12.45
2019-04-28T01:37:09.724Z,12.95
2019-04-28T01:39:41.008Z,11.20
2019-04-28T01:42:10.519Z,9.95
2019-04-28T01:44:39.525Z,11.18
2019-04-28T01:47:10.478Z,4.78
2019-04-28T01:49:40.434Z,4.62
2019-04-28T01:52:10.431Z,4.78
2019-04-28T01:54:40.305Z,4.58
2019-04-28T01:57:10.106Z,6.97
2019-04-28T01:59:40.259Z,2.95
2019-04-28T02:02:10.212Z,5.28
2019-04-28T02:04:40.153Z,4.28
2019-04-28T02:07:10.904Z,2.22
2019-04-28T02:09:39.640Z,4.87
2019-04-28T02:12:10.482Z,3.72
2019-04-28T02:14:40.410Z,2.50
2019-04-28T02:17:10.463Z,7.42
2019-04-28T02:19:41.039Z,2.42
2019-04-28T02:22:26.287Z,8.60
2019-04-28T02:24:54.735Z,4.25
2019-04-28T02:27:23.536Z,4.42
2019-04-28T02:29:52.055Z,4.87
2019-04-28T02:32:21.278Z,7.53
2019-04-28T02:34:50.906Z,1.85
2019-04-28T02:37:20.578Z,3.95
2019-04-28T02:39:50.565Z,4.97
2019-04-28T02:42:20.927Z,4.20
2019-04-28T02:44:50.644Z,1.77
2019-04-28T02:47:21.649Z,3.75
2019-04-28T02:49:56.835Z,1.00
2019-04-28T02:52:30.986Z,3.75
2019-04-28T02:57:30.460Z,5.20
2019-04-28T03:00:00.487Z,1.75
2019-04-28T03:02:31.695Z,0.55
2019-04-28T03:05:00.429Z,0.20
2019-04-28T03:07:31.204Z,2.42
2019-04-28T03:10:01.113Z,0.60
2019-04-28T03:12:31.349Z,4.95
2019-04-28T03:15:00.524Z,1.15
2019-04-28T03:17:30.965Z,0.78
2019-04-28T03:20:01.036Z,0.42
2019-04-28T03:22:32.958Z,0.45
2019-04-28T03:25:02.201Z,0.53
2019-04-28T03:27:44.916Z,0.40
2019-04-28T03:30:33.790Z,0.10
2019-04-28T03:33:10.976Z,1.87
2019-04-28T03:35:33.815Z,1.15
2019-04-28T03:38:02.604Z,0.50
2019-04-28T03:40:33.797Z,1.50
2019-04-28T03:43:03.149Z,2.45
2019-04-28T03:45:33.993Z,0.95
2019-04-28T03:48:02.781Z,0.33
2019-04-28T03:50:31.418Z,0.40
2019-04-28T03:53:01.050Z,3.27
2019-04-28T03:55:34.466Z,1.87
2019-04-28T03:58:00.980Z,0.50
2019-04-28T04:00:31.278Z,0.45
2019-04-28T04:03:00.796Z,1.55
2019-04-28T04:05:30.632Z,2.12
2019-04-28T04:08:00.913Z,1.22
2019-04-28T04:10:31.544Z,0.13
2019-04-28T04:13:04.941Z,0.47
2019-04-28T04:15:48.660Z,0.30
2019-04-28T04:18:21.031Z,3.10
2019-04-28T04:20:52.071Z,1.22
2019-04-28T04:23:23.117Z,1.95
2019-04-28T04:25:51.324Z,1.55
2019-04-28T04:28:20.710Z,0.93
2019-04-28T04:30:50.879Z,0.85
2019-04-28T04:33:20.733Z,0.95
2019-04-28T04:35:51.601Z,1.17
2019-04-28T04:38:21.705Z,0.47
2019-04-28T04:40:51.451Z,2.20
2019-04-28T04:43:21.098Z,0.68
2019-04-28T04:45:51.954Z,1.10
2019-04-28T04:48:21.577Z,1.10
2019-04-28T04:50:51.115Z,1.42
2019-04-28T04:53:20.817Z,1.60
2019-04-28T04:55:50.721Z,1.47
2019-04-28T04:58:21.437Z,2.17
2019-04-28T05:01:10.471Z,2.47
2019-04-28T05:03:40.263Z,1.30
2019-04-28T05:06:26.800Z,0.62
2019-04-28T05:08:55.247Z,1.05
2019-04-28T05:11:24.028Z,1.95
2019-04-28T05:13:52.477Z,2.52
2019-04-28T05:16:20.939Z,2.33
2019-04-28T05:18:49.972Z,3.12
2019-04-28T05:21:19.216Z,1.77
2019-04-28T05:24:09.298Z,3.27
2019-04-28T05:26:41.853Z,2.75
2019-04-28T05:29:07.315Z,4.20
2019-04-28T05:31:35.783Z,4.58
2019-04-28T05:34:08.182Z,3.10
2019-04-28T05:36:41.097Z,2.80
2019-04-28T05:39:06.999Z,2.87
2019-04-28T05:41:35.739Z,6.28
2019-04-28T05:44:04.656Z,2.85
2019-04-28T05:46:33.264Z,3.85
2019-04-28T05:49:10.323Z,3.92
2019-04-28T05:51:40.571Z,3.75
2019-04-28T05:54:22.641Z,3.65
2019-04-28T05:56:56.128Z,5.97
2019-04-28T05:59:44.775Z,3.17
2019-04-28T06:02:26.929Z,3.37
2019-04-28T06:04:55.371Z,5.37
2019-04-28T06:07:25.783Z,4.30
2019-04-28T06:09:55.202Z,5.55
2019-04-28T06:12:23.687Z,6.08
2019-04-28T06:14:52.204Z,4.03
2019-04-28T06:17:20.806Z,4.15
2019-04-28T06:19:50.461Z,4.05
2019-04-28T06:22:19.086Z,5.72
2019-04-28T06:24:47.852Z,6.30
2019-04-28T06:27:16.736Z,5.20
2019-04-28T06:29:45.535Z,5.62
2019-04-28T06:32:13.995Z,5.00
2019-04-28T06:34:42.807Z,7.70
2019-04-28T06:37:11.277Z,6.90
2019-04-28T06:39:39.719Z,6.42
2019-04-28T06:42:08.475Z,6.00
2019-04-28T06:44:36.948Z,7.25
2019-04-28T06:47:05.748Z,9.33
2019-04-28T06:49:34.211Z,7.65
2019-04-28T06:52:02.658Z,13.28
2019-04-28T06:54:31.412Z,21.05
2019-04-28T06:57:00.202Z,15.48
2019-04-28T06:59:28.995Z,19.15
2019-04-28T07:01:57.443Z,17.48
2019-04-28T07:04:26.279Z,12.23
2019-04-28T07:06:54.735Z,14.25
2019-04-28T07:09:23.297Z,13.45
2019-04-28T07:11:52.151Z,16.48
2019-04-28T07:14:20.696Z,15.72
2019-04-28T07:16:49.146Z,12.68
2019-04-28T07:19:17.907Z,14.20
2019-04-28T07:21:54.275Z,17.55
2019-04-28T07:24:22.816Z,17.57
2019-04-28T07:26:51.273Z,13.05
2019-04-28T07:29:20.042Z,21.87
2019-04-28T07:31:48.888Z,18.42
2019-04-28T07:34:17.515Z,20.88
2019-04-28T07:36:45.964Z,13.95
2019-04-28T07:39:14.430Z,16.30
2019-04-28T07:41:43.183Z,17.00
2019-04-28T07:44:11.650Z,20.00
2019-04-28T07:46:40.107Z,20.15
2019-04-28T07:49:08.852Z,19.52
2019-04-28T07:51:54.059Z,15.80
2019-04-28T07:54:22.911Z,17.42
2019-04-28T07:56:51.371Z,23.73
2019-04-28T07:59:19.911Z,18.52
2019-04-28T08:01:48.671Z,21.85
2019-04-28T08:04:17.472Z,19.10
2019-04-28T08:06:45.923Z,20.17
2019-04-28T08:09:16.387Z,18.48
2019-04-28T08:11:44.842Z,22.70
2019-04-28T08:14:13.317Z,21.35
2019-04-28T08:16:42.047Z,20.37
2019-04-28T08:19:10.844Z,22.95
2019-04-28T08:21:39.301Z,23.55
2019-04-28T08:24:08.120Z,19.15
2019-04-28T08:26:36.580Z,23.40
2019-04-28T08:29:05.499Z,21.33
2019-04-28T08:31:44.939Z,22.65
2019-04-28T08:34:14.549Z,25.37
2019-04-28T08:36:43.004Z,21.27
2019-04-28T08:39:11.922Z,24.12
2019-04-28T08:41:40.392Z,23.32
2019-04-28T08:44:09.207Z,22.82
2019-04-28T08:46:37.996Z,21.45
2019-04-28T08:49:06.447Z,17.12
2019-04-28T08:51:34.911Z,15.10
2019-04-28T08:54:03.363Z,12.73
2019-04-28T08:56:31.832Z,10.93
2019-04-28T08:59:00.356Z,12.10
2019-04-28T09:01:28.894Z,12.93
2019-04-28T09:03:57.342Z,10.45
2019-04-28T09:06:26.093Z,12.63
2019-04-28T09:08:54.619Z,16.57
2019-04-28T09:11:23.371Z,15.20
2019-04-28T09:13:51.819Z,13.32
2019-04-28T09:16:20.287Z,12.47
2019-04-28T09:18:48.736Z,12.23
2019-04-28T09:21:17.519Z,10.32
2019-04-28T09:23:45.971Z,13.65
2019-04-28T09:26:14.452Z,22.65
2019-04-28T09:28:43.282Z,25.75
2019-04-28T09:31:11.756Z,22.80
2019-04-28T09:33:40.211Z,18.82
2019-04-28T09:36:08.683Z,19.35
2019-04-28T09:38:37.134Z,16.87
2019-04-28T09:41:05.603Z,14.95
2019-04-28T09:43:52.515Z,16.80
2019-04-28T09:46:22.629Z,18.57
2019-04-28T09:48:51.435Z,12.53
2019-04-28T09:51:19.903Z,14.18
2019-04-28T09:53:48.355Z,16.35
2019-04-28T09:56:16.831Z,17.27
2019-04-28T09:58:45.282Z,18.02
2019-04-28T10:01:13.763Z,12.33
2019-04-28T10:03:42.287Z,11.40
2019-04-28T10:06:10.764Z,11.88
2019-04-28T10:08:39.211Z,16.35
2019-04-28T10:11:07.683Z,11.53
2019-04-28T10:13:36.127Z,10.08
2019-04-28T10:16:04.659Z,8.33
2019-04-28T10:18:33.107Z,11.68
2019-04-28T10:21:01.956Z,8.65
2019-04-28T10:23:30.748Z,11.78
2019-04-28T10:25:59.543Z,12.85
2019-04-28T10:28:28.069Z,15.85
2019-04-28T10:30:56.523Z,14.13
2019-04-28T10:33:24.991Z,21.68
2019-04-28T10:35:53.444Z,21.80
2019-04-28T10:38:22.275Z,22.45
2019-04-28T10:41:04.787Z,17.35
2019-04-28T10:43:33.575Z,14.03
2019-04-28T10:46:02.149Z,10.15
2019-04-28T10:48:31.264Z,9.45
2019-04-28T10:51:01.218Z,11.15
2019-04-28T10:53:29.943Z,9.28
2019-04-28T10:55:58.402Z,11.68
2019-04-28T10:58:26.951Z,11.25
2019-04-28T11:00:55.470Z,6.03
2019-04-28T11:03:24.219Z,6.90
2019-04-28T11:05:52.747Z,7.67
2019-04-28T11:08:35.111Z,7.33
2019-04-28T11:11:05.275Z,9.60
2019-04-28T11:13:34.032Z,8.60
2019-04-28T11:16:02.747Z,10.03
2019-04-28T11:18:31.478Z,10.28
2019-04-28T11:21:00.307Z,10.75
2019-04-28T11:23:28.775Z,8.53
2019-04-28T11:25:57.223Z,6.50
2019-04-28T11:28:25.699Z,10.18
2019-04-28T11:30:54.147Z,6.17
2019-04-28T11:33:27.240Z,7.03
2019-04-28T11:35:55.835Z,8.45
2019-04-28T11:38:24.457Z,11.03
2019-04-28T11:40:53.207Z,9.45
2019-04-28T11:43:22.107Z,12.23
2019-04-28T11:45:50.891Z,12.43
2019-04-28T11:48:19.367Z,10.30
2019-04-28T11:50:47.823Z,10.28
2019-04-28T11:53:16.659Z,9.25
2019-04-28T11:55:45.114Z,10.40
2019-04-28T11:58:14.040Z,9.38
2019-04-28T12:00:42.836Z,12.07
2019-04-28T12:03:11.836Z,12.50
2019-04-28T12:05:44.923Z,8.38
2019-04-28T12:08:13.466Z,11.93
2019-04-28T12:10:58.539Z,12.50
2019-04-28T12:16:21.039Z,16.75
2019-04-28T12:18:54.223Z,9.63
2019-04-28T12:21:22.750Z,14.68
2019-04-28T12:23:51.479Z,9.18
2019-04-28T12:26:19.935Z,14.55
2019-04-28T12:28:48.779Z,13.78
2019-04-28T12:31:17.228Z,11.08
2019-04-28T12:33:46.060Z,12.88
2019-04-28T12:36:14.852Z,13.90
2019-04-28T12:38:43.643Z,11.03
2019-04-28T12:41:12.445Z,15.45
2019-04-28T12:43:40.958Z,9.88
2019-04-28T12:46:09.446Z,14.75
2019-04-28T12:48:38.201Z,12.65
2019-04-28T12:51:07.096Z,15.55
2019-04-28T12:53:35.892Z,18.85
2019-04-28T12:56:04.364Z,12.15
2019-04-28T12:58:32.816Z,13.88
2019-04-28T13:01:05.749Z,12.73
2019-04-28T13:03:39.248Z,13.88
2019-04-28T13:06:12.319Z,12.90
2019-04-28T13:08:40.772Z,10.70
2019-04-28T13:11:09.234Z,13.03
2019-04-28T13:13:37.687Z,13.85
2019-04-28T13:16:06.159Z,13.50
2019-04-28T13:18:34.603Z,10.30
2019-04-28T13:21:03.087Z,9.53
2019-04-28T13:23:31.539Z,8.63
2019-04-28T13:26:00.331Z,5.83
2019-04-28T13:28:29.119Z,9.13
2019-04-28T13:30:57.593Z,7.30
2019-04-28T13:33:26.044Z,12.13
2019-04-28T13:35:54.516Z,10.35
2019-04-28T13:38:23.263Z,8.78
2019-04-28T13:40:51.739Z,10.70
2019-04-28T13:43:20.193Z,9.48
2019-04-28T13:45:48.660Z,9.90
2019-04-28T13:48:17.418Z,10.25
2019-04-28T13:50:48.805Z,9.98
2019-04-28T13:53:16.739Z,14.55
2019-04-28T13:55:47.389Z,9.58
2019-04-28T13:58:17.612Z,12.98
2019-04-28T14:00:48.043Z,9.65
2019-04-28T14:03:18.567Z,9.30
2019-04-28T14:05:54.951Z,12.00
2019-04-28T14:08:23.827Z,10.40
2019-04-28T14:10:52.288Z,12.93
2019-04-28T14:13:20.760Z,8.20
2019-04-28T14:15:49.488Z,12.33
2019-04-28T14:18:18.223Z,6.20
2019-04-28T14:20:46.999Z,6.20
2019-04-28T14:23:15.867Z,10.15
2019-04-28T14:25:44.365Z,8.25
2019-04-28T14:28:12.872Z,8.00
2019-04-28T14:30:41.596Z,7.67
2019-04-28T14:33:10.140Z,5.03
2019-04-28T14:35:39.032Z,6.92
2019-04-28T14:38:07.550Z,6.75
2019-04-28T14:40:36.292Z,7.40
2019-04-28T14:43:04.888Z,7.40
2019-04-28T14:45:33.375Z,5.62
2019-04-28T14:48:02.258Z,5.58
2019-04-28T14:50:30.704Z,6.15
2019-04-28T14:52:59.233Z,9.75
2019-04-28T14:55:28.019Z,9.40
2019-04-28T14:57:56.920Z,4.30
2019-04-28T15:00:32.776Z,9.68
2019-04-28T15:03:05.603Z,11.08
2019-04-28T15:05:39.264Z,10.10
2019-04-28T15:08:12.607Z,11.90
2019-04-28T15:10:59.202Z,11.78
2019-04-28T15:13:28.259Z,14.75
2019-04-28T15:15:56.814Z,8.93
2019-04-28T15:18:25.649Z,10.10
2019-04-28T15:20:54.531Z,12.15
2019-04-28T15:23:23.427Z,12.07
2019-04-28T15:25:51.870Z,8.13
2019-04-28T15:28:20.331Z,12.10
2019-04-28T15:30:48.871Z,8.63
2019-04-28T15:33:17.727Z,13.28
2019-04-28T15:35:46.232Z,12.60
2019-04-28T15:38:14.675Z,9.38
2019-04-28T15:40:43.147Z,13.85
2019-04-28T15:43:11.598Z,11.90
2019-04-28T15:45:40.415Z,12.15
2019-04-28T15:48:08.864Z,8.18
2019-04-28T15:50:37.695Z,7.80
2019-04-28T15:53:06.147Z,5.30
2019-04-28T15:55:36.255Z,7.47
2019-04-28T15:58:22.643Z,9.38
2019-04-28T16:00:51.388Z,8.48
2019-04-28T16:03:19.911Z,6.50
2019-04-28T16:05:48.672Z,10.20
2019-04-28T16:08:17.118Z,7.87
2019-04-28T16:10:45.591Z,11.80
2019-04-28T16:13:14.323Z,6.33
2019-04-28T16:15:42.864Z,6.62
2019-04-28T16:18:11.608Z,7.90
2019-04-28T16:20:40.396Z,8.78
2019-04-28T16:23:08.842Z,7.87
2019-04-28T16:25:37.887Z,10.45
2019-04-28T16:28:06.403Z,8.48
2019-04-28T16:30:35.163Z,6.42
2019-04-28T16:33:03.953Z,7.35
2019-04-28T16:35:32.677Z,7.80
2019-04-28T16:38:01.441Z,8.48
2019-04-28T16:40:29.915Z,8.05
2019-04-28T16:42:58.710Z,9.60
2019-04-28T16:45:27.180Z,9.75
2019-04-28T16:47:55.635Z,10.53
2019-04-28T16:50:24.376Z,8.83
2019-04-28T16:52:52.822Z,6.53
2019-04-28T16:55:23.010Z,6.90
2019-04-28T16:58:02.429Z,14.25
2019-04-28T17:00:32.860Z,8.30
2019-04-28T17:03:01.651Z,11.45
2019-04-28T17:05:30.118Z,7.00
2019-04-28T17:07:58.571Z,11.78
2019-04-28T17:10:27.413Z,9.88
2019-04-28T17:12:55.929Z,7.00
2019-04-28T17:15:24.391Z,6.75
2019-04-28T17:17:53.175Z,14.07
2019-04-28T17:20:21.632Z,12.43
2019-04-28T17:22:50.170Z,12.60
2019-04-28T17:25:18.620Z,10.43
2019-04-28T17:27:47.277Z,9.13
2019-04-28T17:30:16.427Z,13.22
2019-04-28T17:32:47.196Z,12.60
2019-04-28T17:35:15.792Z,16.20
2019-04-28T17:37:44.334Z,11.05
2019-04-28T17:40:13.707Z,11.22
2019-04-28T17:42:42.415Z,14.43
2019-04-28T17:45:11.102Z,16.42
2019-04-28T17:47:39.566Z,8.73
2019-04-28T17:50:09.329Z,14.58
2019-04-28T17:52:37.801Z,10.63
2019-04-28T17:55:06.882Z,10.00
2019-04-28T17:57:35.703Z,14.60
2019-04-28T18:00:25.067Z,13.78
2019-04-28T18:02:55.178Z,7.95
2019-04-28T18:05:31.211Z,13.40
2019-04-28T18:08:01.338Z,9.98
2019-04-28T18:10:30.984Z,12.73
2019-04-28T18:13:00.735Z,14.58
2019-04-28T18:15:31.219Z,16.48
2019-04-28T18:18:07.395Z,15.58
2019-04-28T18:20:36.283Z,16.25
2019-04-28T18:23:05.081Z,15.13
2019-04-28T18:25:33.538Z,17.23
2019-04-28T18:28:02.011Z,14.95
2019-04-28T18:30:32.099Z,10.55
2019-04-28T18:33:05.148Z,17.92
2019-04-28T18:35:38.247Z,12.28
2019-04-28T18:38:34.118Z,14.45
2019-04-28T18:40:58.047Z,19.33
2019-04-28T18:43:44.467Z,13.70
2019-04-28T18:46:14.130Z,16.87
2019-04-28T18:48:42.675Z,17.40
2019-04-28T18:51:11.203Z,16.30
2019-04-28T18:53:39.677Z,11.93
2019-04-28T18:56:08.404Z,12.28
2019-04-28T18:58:36.875Z,14.30
2019-04-28T19:01:09.775Z,19.92
2019-04-28T19:03:38.246Z,15.25
2019-04-28T19:06:07.056Z,12.65
2019-04-28T19:08:49.084Z,13.88
2019-04-28T19:11:17.587Z,17.40
2019-04-28T19:13:50.643Z,17.10
2019-04-28T19:16:26.716Z,17.25
2019-04-28T19:18:56.823Z,16.02
2019-04-28T19:21:25.270Z,11.50
2019-04-28T19:23:54.284Z,15.05
2019-04-28T19:26:23.083Z,13.38
2019-04-28T19:28:51.875Z,16.80
2019-04-28T19:31:20.331Z,18.67
2019-04-28T19:33:49.156Z,15.65
2019-04-28T19:36:17.699Z,23.73
2019-04-28T19:38:46.435Z,22.50
2019-04-28T19:41:14.898Z,19.17
2019-04-28T19:43:43.350Z,20.75
2019-04-28T19:46:13.459Z,20.02
2019-04-28T19:48:42.226Z,25.05
2019-04-28T19:51:11.117Z,21.12
2019-04-28T19:53:39.912Z,19.98
2019-04-28T19:56:10.100Z,16.35
2019-04-28T19:58:43.179Z,25.50
2019-04-28T20:01:13.295Z,21.55
2019-04-28T20:03:42.139Z,19.77
2019-04-28T20:06:10.932Z,18.62
2019-04-28T20:08:39.390Z,22.45
2019-04-28T20:11:07.930Z,21.17
2019-04-28T20:13:36.374Z,20.30
2019-04-28T20:16:05.187Z,22.48
2019-04-28T20:18:33.703Z,20.05
2019-04-28T20:21:02.254Z,18.32
2019-04-28T20:23:30.770Z,19.55
2019-04-28T20:25:59.243Z,23.70
2019-04-28T20:28:28.016Z,18.57
2019-04-28T20:30:56.495Z,22.42
2019-04-28T20:33:25.016Z,20.85
2019-04-28T20:35:55.119Z,19.42
2019-04-28T20:38:25.284Z,18.50
2019-04-28T20:41:01.413Z,20.55
2019-04-28T20:43:30.814Z,24.65
2019-04-28T20:45:59.708Z,19.27
2019-04-28T20:48:28.248Z,26.55
2019-04-28T20:50:57.085Z,17.12
2019-04-28T20:53:25.886Z,19.52
2019-04-28T20:55:54.399Z,17.35
2019-04-28T20:58:22.862Z,17.80
2019-04-28T21:00:51.313Z,16.93
2019-04-28T21:03:19.781Z,23.20
2019-04-28T21:05:48.235Z,17.95
2019-04-28T21:08:17.100Z,21.60
2019-04-28T21:10:45.888Z,16.55
2019-04-28T21:13:14.355Z,21.77
2019-04-28T21:15:43.172Z,25.25
2019-04-28T21:18:11.639Z,28.57
2019-04-28T21:20:40.086Z,26.93
2019-04-28T21:23:08.555Z,26.57
2019-04-28T21:25:37.020Z,22.25
2019-04-28T21:28:05.561Z,25.77
2019-04-28T21:30:34.294Z,17.62
2019-04-28T21:33:02.754Z,20.15
2019-04-28T21:35:31.203Z,18.65
2019-04-28T21:37:59.675Z,22.00
2019-04-28T21:40:28.597Z,19.30
2019-04-28T21:42:58.711Z,22.32
2019-04-28T21:45:29.095Z,26.73
2019-04-28T21:47:57.568Z,18.02
2019-04-28T21:50:26.015Z,17.45
2019-04-28T21:52:54.743Z,22.82
2019-04-28T21:55:23.544Z,19.92
2019-04-28T21:57:52.344Z,24.02
2019-04-28T22:00:22.871Z,22.05
2019-04-28T22:02:51.672Z,21.55
2019-04-28T22:05:30.124Z,21.02
2019-04-28T22:07:50.483Z,25.65
2019-04-28T22:10:18.935Z,20.57
2019-04-28T22:12:47.406Z,20.92
2019-04-28T22:15:16.144Z,19.30
2019-04-28T22:17:44.611Z,21.40
2019-04-28T22:20:13.131Z,18.80
2019-04-28T22:22:41.659Z,19.00
2019-04-28T22:25:11.933Z,16.87
2019-04-28T22:27:41.857Z,19.25
2019-04-28T22:30:11.256Z,19.07
2019-04-28T22:32:40.052Z,20.05
2019-04-28T22:35:08.739Z,20.23
2019-04-28T22:37:37.536Z,21.07
2019-04-28T22:40:07.743Z,17.95
2019-04-28T22:42:36.196Z,23.52
2019-04-28T22:45:06.978Z,19.52
2019-04-28T22:47:35.494Z,20.00
2019-04-28T22:50:07.242Z,15.80
2019-04-28T22:52:36.230Z,16.45
2019-04-28T22:55:11.876Z,19.57
2019-04-28T22:57:57.551Z,20.15
2019-04-28T23:00:35.399Z,17.27
2019-04-28T23:03:04.138Z,18.92
2019-04-28T23:05:32.603Z,14.10
2019-04-28T23:08:02.548Z,19.15
2019-04-28T23:10:31.019Z,12.60
2019-04-28T23:12:59.467Z,16.80
2019-04-28T23:15:28.312Z,15.43
2019-04-28T23:17:56.904Z,16.15
2019-04-28T23:20:27.323Z,17.67
2019-04-28T23:22:57.416Z,13.95
2019-04-28T23:25:26.255Z,21.12
2019-04-28T23:27:54.771Z,15.78
2019-04-28T23:30:41.224Z,17.50
2019-04-28T23:33:10.021Z,17.57
2019-04-28T23:35:38.927Z,18.55
2019-04-28T23:38:08.772Z,17.55
2019-04-28T23:40:39.163Z,20.08
2019-04-28T23:43:11.819Z,17.85
2019-04-28T23:45:40.639Z,20.43
2019-04-28T23:48:10.295Z,18.62
2019-04-28T23:50:52.738Z,18.35
2019-04-28T23:53:39.019Z,19.27
2019-04-28T23:56:07.557Z,22.58
2019-04-28T23:58:37.348Z,25.12
